aviador You're here:

KASH Decoded Metar

NASHUA/BOIRE FLD in NH, USA
Report Time2017-09-26 02:56:00
UTC Time2017-09-26 03:34:54
Flight Rules vfr VFR
WindCalm
Visibility9999 m
Phenomena:N/A
Clouds:N/A
Expected CloudBase > 800 ft AGL from Temp-Dew spread
CeilingNone
Temp20°C (ISA +5)
Dew Point18°C (88% RH)
QNH1018 hPa
Density Alt938 ft
Elevation200 ft
Report Wrong Elevation
Raw Report
METAR KASH 260256Z AUTO 00000KT 10SM CLR 20/18 A3007 RMK AO2 SLP189
T02000178 58001=

Extra information for KASH:More info

Metar Taf Metar & Taf Last 4 Metars F.Rules Stats Wind Profile Meteogram Temp Stats Airport Information Weather charts Add Link Nearby VenuesMetar ALERT Operation Metar Decoded Social comments

AIRNAV info for KASH